Brooklyn, CT (06234)

9:01 AM EDT on October 31, 2014 (GMT -0400)
Allen Hill Road | Change Station
CLOSE
Current Station
Personal Weather Station
Location: Brooklyn, CT
Elevation: 341 ft
Nearby Weather Stations

Elev 341 ft 41.78 °N, 71.92 °W | Updated 1 minute ago

Mostly Cloudy
Mostly Cloudy
42.4 °F
Feels Like 42 °F
N
2.0
Wind Variable Wind from NNE
Gusts 3.0 mph

Today
High -- | Low -- °F
--% Chance of Precip.
Yesterday
High -- | Low -- °F
Precip. -- in
7:18 AM 5:43 PM
First Quarter, 55% visible
Pressure 30.05 in
Visibility 2.5 miles
Clouds Mostly Cloudy 100 ft
Windchill 42 °F
Dew Point 40 °F
Humidity 90%
Rainfall 0.00 in
Snow Depth Not available.
UV 1 out of 12
Pollen .50 out of 12
Air Quality Not available.
Flu Activity Not available.
SPECI KIJD 311256Z AUTO 00000KT 2 1/2SM BR BKN001 02/02 A3005 RMK AO2 T00220017

More Conditions Fewer Conditions

Pressure 30.05 in
Visibility 2.5 miles
Clouds Mostly Cloudy 100 ft
Windchill 42 °F
Dew Point 40 °F
Humidity 90%
Rainfall 0.00 in
Snow Depth Not available.
UV 1 out of 12
Pollen .50 out of 12
Air Quality Not available.
Flu Activity Not available.
SPECI KIJD 311256Z AUTO 00000KT 2 1/2SM BR BKN001 02/02 A3005 RMK AO2 T00220017

More Conditions Fewer Conditions

10-Day Weather Forecast

Almanac

Astronomy

Oct. 31, 2014 Rise Set
Actual Time
Civil Twilight
Nautical Twilight
Astronomical Twilight
Moon
Length of Visible Light
Length of Day
Tomorrow will be .
, % of the Moon is Illuminated

Today's Extremes

State Highs State Lows

Community

WunderPhotos

Upload Photos

1,766,601 photos uploaded!

WunderBlogs® & News

Nearby

Air Quality

  Air Quality AQ Index Pollutant
Not available.

Snow Depth

Station Depth Elevation

Earthquake Activity

City Distance Mag. Time & Date
Minimum magnitude displayed is 2.5.

Coastal Water Temperatures

Place Temperature

Nearby Weather Stations